createdAt,value
2019-02-16T00:02:16.643Z,74.40
2019-02-16T00:05:20.999Z,74.40
2019-02-16T00:08:25.426Z,74.50
2019-02-16T00:11:30.691Z,74.80
2019-02-16T00:14:35.436Z,74.80
2019-02-16T00:17:39.776Z,74.80
2019-02-16T00:20:44.165Z,74.90
2019-02-16T00:23:48.621Z,75.00
2019-02-16T00:26:53.018Z,74.90
2019-02-16T00:29:57.313Z,75.00
2019-02-16T00:33:01.756Z,75.10
2019-02-16T00:36:06.097Z,75.10
2019-02-16T00:39:10.618Z,75.30
2019-02-16T00:42:14.980Z,75.30
2019-02-16T00:45:19.281Z,75.40
2019-02-16T00:48:23.706Z,75.40
2019-02-16T00:51:28.088Z,75.30
2019-02-16T00:54:32.442Z,75.30
2019-02-16T00:57:36.820Z,75.30
2019-02-16T01:00:41.087Z,75.20
2019-02-16T01:03:45.447Z,75.30
2019-02-16T01:06:49.750Z,75.40
2019-02-16T01:09:53.973Z,75.60
2019-02-16T01:12:58.454Z,75.60
2019-02-16T01:16:03.788Z,75.80
2019-02-16T01:19:08.138Z,75.50
2019-02-16T01:22:12.451Z,75.50
2019-02-16T01:25:16.740Z,75.50
2019-02-16T01:28:21.027Z,75.50
2019-02-16T01:31:25.373Z,75.50
2019-02-16T01:34:29.741Z,75.40
2019-02-16T01:37:34.012Z,75.40
2019-02-16T01:40:38.416Z,75.30
2019-02-16T01:43:42.683Z,75.30
2019-02-16T01:46:46.981Z,75.30
2019-02-16T01:49:51.169Z,75.10
2019-02-16T01:52:55.464Z,75.20
2019-02-16T01:55:59.800Z,75.00
2019-02-16T01:59:04.097Z,75.00
2019-02-16T02:02:08.368Z,75.00
2019-02-16T02:05:12.749Z,75.00
2019-02-16T02:08:17.191Z,75.00
2019-02-16T02:11:21.487Z,74.80
2019-02-16T02:14:25.765Z,74.60
2019-02-16T02:17:30.069Z,74.50
2019-02-16T02:20:34.336Z,74.40
2019-02-16T02:23:38.653Z,74.40
2019-02-16T02:26:42.983Z,74.10
2019-02-16T02:29:47.297Z,75.10
2019-02-16T02:32:51.705Z,74.30
2019-02-16T02:35:56.041Z,74.10
2019-02-16T02:39:00.305Z,74.10
2019-02-16T02:42:04.607Z,74.10
2019-02-16T02:45:10.033Z,74.00
2019-02-16T02:48:14.571Z,73.90
2019-02-16T02:51:18.849Z,73.80
2019-02-16T02:54:23.155Z,73.80
2019-02-16T02:57:27.501Z,73.80
2019-02-16T03:00:31.890Z,73.80
2019-02-16T03:03:36.155Z,73.20
2019-02-16T03:06:40.545Z,73.90
2019-02-16T03:09:44.813Z,73.70
2019-02-16T03:12:49.032Z,73.80
2019-02-16T03:15:53.377Z,73.80
2019-02-16T03:18:57.825Z,74.00
2019-02-16T03:22:03.233Z,74.00
2019-02-16T03:25:08.140Z,74.00
2019-02-16T03:28:39.355Z,74.20
2019-02-16T03:32:33.826Z,74.60
2019-02-16T03:36:16.431Z,74.10
2019-02-16T03:39:27.593Z,74.10
2019-02-16T03:42:31.955Z,74.20
2019-02-16T03:45:36.263Z,74.20
2019-02-16T03:48:40.614Z,74.30
2019-02-16T03:51:44.988Z,74.30
2019-02-16T03:54:49.323Z,74.30
2019-02-16T03:57:53.620Z,74.40
2019-02-16T04:00:57.969Z,74.30
2019-02-16T04:04:02.261Z,74.40
2019-02-16T04:07:06.711Z,74.40
2019-02-16T04:10:10.988Z,74.50
2019-02-16T04:13:15.261Z,74.70
2019-02-16T04:16:19.719Z,75.00
2019-02-16T04:19:24.095Z,75.10
2019-02-16T04:22:28.385Z,75.10
2019-02-16T04:25:32.756Z,75.30
2019-02-16T04:28:37.257Z,75.40
2019-02-16T04:31:41.592Z,75.40
2019-02-16T04:34:45.964Z,75.50
2019-02-16T04:37:50.234Z,75.40
2019-02-16T04:40:54.536Z,75.30
2019-02-16T04:43:58.815Z,75.20
2019-02-16T04:47:03.129Z,75.10
2019-02-16T04:50:07.421Z,75.20
2019-02-16T04:53:11.789Z,75.20
2019-02-16T04:56:16.128Z,75.00
2019-02-16T04:59:20.492Z,75.00
2019-02-16T05:02:24.814Z,75.00
2019-02-16T05:05:29.144Z,75.00
2019-02-16T05:08:33.486Z,75.00
2019-02-16T05:11:37.792Z,75.00
2019-02-16T05:14:42.077Z,74.90
2019-02-16T05:17:47.592Z,74.70
2019-02-16T05:20:51.874Z,74.70
2019-02-16T05:23:56.115Z,74.60
2019-02-16T05:27:00.480Z,74.50
2019-02-16T05:30:05.272Z,74.30
2019-02-16T05:33:09.693Z,74.10
2019-02-16T05:36:14.063Z,73.90
2019-02-16T05:39:18.339Z,73.90
2019-02-16T05:42:22.722Z,73.80
2019-02-16T05:45:27.056Z,73.70
2019-02-16T05:48:31.275Z,73.80
2019-02-16T05:51:35.775Z,73.50
2019-02-16T05:54:40.143Z,73.60
2019-02-16T05:57:44.426Z,73.70
2019-02-16T06:00:48.811Z,73.60
2019-02-16T06:03:53.222Z,73.80
2019-02-16T06:06:57.524Z,74.70
2019-02-16T06:10:01.802Z,74.00
2019-02-16T06:13:06.182Z,74.00
2019-02-16T06:16:10.517Z,74.10
2019-02-16T06:19:14.926Z,74.10
2019-02-16T06:22:19.271Z,74.30
2019-02-16T06:25:23.589Z,74.30
2019-02-16T06:28:27.947Z,74.60
2019-02-16T06:31:32.267Z,74.80
2019-02-16T06:34:36.669Z,75.00
2019-02-16T06:37:40.982Z,75.20
2019-02-16T06:40:45.337Z,75.20
2019-02-16T06:43:49.648Z,75.40
2019-02-16T06:46:53.912Z,75.80
2019-02-16T06:49:58.344Z,75.90
2019-02-16T06:53:02.616Z,75.90
2019-02-16T06:56:34.999Z,76.10
2019-02-16T06:59:39.369Z,76.30
2019-02-16T07:02:43.740Z,76.50
2019-02-16T07:05:48.063Z,76.50
2019-02-16T07:08:52.405Z,76.70
2019-02-16T07:11:56.753Z,76.80
2019-02-16T07:15:01.154Z,77.00
2019-02-16T07:18:30.348Z,77.30
2019-02-16T07:21:35.497Z,77.60
2019-02-16T07:24:39.807Z,77.90
2019-02-16T07:27:44.172Z,77.90
2019-02-16T07:30:48.432Z,78.10
2019-02-16T07:33:52.738Z,78.10
2019-02-16T07:36:57.039Z,78.60
2019-02-16T07:40:01.330Z,78.40
2019-02-16T07:43:06.112Z,79.00
2019-02-16T07:46:16.560Z,79.00
2019-02-16T07:49:36.518Z,79.30
2019-02-16T07:52:51.470Z,79.20
2019-02-16T07:56:18.971Z,79.10
2019-02-16T07:59:45.085Z,79.30
2019-02-16T08:03:03.011Z,79.70
2019-02-16T08:06:35.053Z,79.60
2019-02-16T08:09:58.309Z,79.40
2019-02-16T08:13:19.768Z,79.60
2019-02-16T08:16:41.995Z,79.60
2019-02-16T08:20:05.323Z,79.30
2019-02-16T08:23:17.639Z,79.30
2019-02-16T08:26:49.994Z,79.00
2019-02-16T08:30:19.344Z,78.40
2019-02-16T08:33:48.702Z,78.20
2019-02-16T08:37:10.864Z,77.90
2019-02-16T08:40:49.264Z,77.80
2019-02-16T08:44:00.417Z,77.20
2019-02-16T08:47:23.666Z,76.40
2019-02-16T08:50:40.001Z,76.30
2019-02-16T08:54:02.152Z,76.30
2019-02-16T08:57:34.295Z,75.70
2019-02-16T09:01:00.407Z,75.60
2019-02-16T09:04:22.657Z,74.30
2019-02-16T09:07:45.998Z,74.10
2019-02-16T09:11:07.938Z,73.70
2019-02-16T09:14:24.418Z,73.40
2019-02-16T09:18:00.021Z,73.50
2019-02-16T09:21:32.233Z,73.30
2019-02-16T09:24:59.984Z,73.20
2019-02-16T09:28:26.525Z,72.60
2019-02-16T09:32:01.863Z,72.60
2019-02-16T09:35:34.564Z,71.80
2019-02-16T09:38:54.918Z,71.80
2019-02-16T09:42:12.765Z,71.00
2019-02-16T09:45:39.122Z,70.90
2019-02-16T09:49:01.040Z,69.50
2019-02-16T09:52:22.991Z,69.00
2019-02-16T09:55:35.156Z,69.00
2019-02-16T09:58:53.794Z,67.40
2019-02-16T10:02:20.171Z,65.20
2019-02-16T10:05:46.150Z,64.00
2019-02-16T10:09:09.512Z,63.40
2019-02-16T10:12:31.613Z,61.90
2019-02-16T10:16:04.152Z,62.70
2019-02-16T10:19:56.121Z,62.10
2019-02-16T10:23:31.410Z,60.90
2019-02-16T10:26:57.632Z,59.90
2019-02-16T10:30:09.141Z,60.20
2019-02-16T10:33:32.430Z,60.00
2019-02-16T10:36:58.571Z,58.50
2019-02-16T10:40:30.901Z,58.40
2019-02-16T10:43:57.100Z,58.60
2019-02-16T10:47:18.066Z,57.60
2019-02-16T10:50:37.865Z,56.90
2019-02-16T10:54:04.275Z,55.50
2019-02-16T10:57:27.604Z,55.10
2019-02-16T11:00:57.234Z,55.10
2019-02-16T11:04:09.635Z,55.00
2019-02-16T11:07:33.062Z,54.00
2019-02-16T11:10:52.518Z,53.60
2019-02-16T11:14:06.106Z,53.50
2019-02-16T11:17:36.637Z,52.90
2019-02-16T11:20:53.822Z,53.30
2019-02-16T11:24:23.230Z,52.50
2019-02-16T11:27:55.316Z,52.20
2019-02-16T11:31:34.445Z,53.60
2019-02-16T11:34:49.992Z,51.90
2019-02-16T11:38:19.168Z,51.80
2019-02-16T11:41:34.328Z,51.20
2019-02-16T11:44:50.519Z,50.40
2019-02-16T11:48:22.925Z,50.40
2019-02-16T11:51:41.354Z,49.70
2019-02-16T11:55:07.682Z,49.10
2019-02-16T11:58:36.451Z,49.00
2019-02-16T12:01:52.175Z,48.60
2019-02-16T12:05:01.214Z,48.80
2019-02-16T12:08:17.962Z,48.30
2019-02-16T12:11:38.570Z,47.40
2019-02-16T12:15:10.994Z,46.80
2019-02-16T12:18:26.988Z,46.90
2019-02-16T12:21:50.091Z,46.90
2019-02-16T12:25:25.479Z,46.30
2019-02-16T12:28:48.108Z,46.40
2019-02-16T12:32:14.556Z,46.40
2019-02-16T12:35:43.866Z,46.50
2019-02-16T12:39:07.543Z,45.70
2019-02-16T12:42:29.577Z,45.60
2019-02-16T12:45:55.605Z,45.70
2019-02-16T12:49:24.488Z,45.40
2019-02-16T12:52:51.350Z,35.10
2019-02-16T12:56:20.587Z,32.90
2019-02-16T12:59:50.560Z,34.70
2019-02-16T13:03:13.448Z,32.70
2019-02-16T13:06:36.365Z,33.60
2019-02-16T13:10:01.939Z,31.80
2019-02-16T13:13:17.508Z,32.60
2019-02-16T13:16:33.653Z,31.70
2019-02-16T13:19:55.733Z,32.70
2019-02-16T13:23:11.725Z,31.50
2019-02-16T13:26:35.008Z,32.50
2019-02-16T13:29:57.883Z,31.80
2019-02-16T13:33:24.275Z,33.50
2019-02-16T13:36:35.720Z,35.80
2019-02-16T13:39:46.589Z,36.00
2019-02-16T13:43:03.918Z,36.60
2019-02-16T13:46:24.209Z,37.40
2019-02-16T13:49:37.696Z,37.70
2019-02-16T13:53:00.750Z,38.00
2019-02-16T13:56:12.285Z,38.30
2019-02-16T13:59:38.376Z,38.60
2019-02-16T14:02:50.220Z,39.30
2019-02-16T14:06:16.413Z,38.90
2019-02-16T14:09:30.679Z,39.00
2019-02-16T14:13:00.036Z,39.10
2019-02-16T14:16:12.238Z,39.40
2019-02-16T14:19:16.628Z,39.40
2019-02-16T14:22:20.909Z,39.60
2019-02-16T14:25:42.352Z,39.30
2019-02-16T14:28:39.676Z,39.40
2019-02-16T14:31:44.055Z,39.60
2019-02-16T14:34:48.341Z,39.80
2019-02-16T14:38:01.292Z,40.10
2019-02-16T14:41:05.554Z,40.40
2019-02-16T14:44:09.945Z,40.30
2019-02-16T14:47:14.220Z,40.60
2019-02-16T14:50:18.663Z,40.90
2019-02-16T14:53:22.944Z,40.90
2019-02-16T14:56:27.268Z,41.10
2019-02-16T14:59:31.542Z,41.20
2019-02-16T15:02:36.045Z,41.20
2019-02-16T15:05:40.477Z,41.60
2019-02-16T15:08:44.830Z,42.10
2019-02-16T15:11:49.163Z,42.10
2019-02-16T15:14:53.482Z,41.80
2019-02-16T15:17:58.225Z,41.90
2019-02-16T15:21:02.752Z,42.30
2019-02-16T15:24:07.124Z,42.90
2019-02-16T15:27:11.688Z,43.50
2019-02-16T15:30:17.246Z,44.40
2019-02-16T15:33:21.644Z,44.90
2019-02-16T15:36:26.015Z,45.10
2019-02-16T15:39:42.441Z,45.20
2019-02-16T15:42:46.833Z,45.70
2019-02-16T15:45:51.183Z,45.70
2019-02-16T15:48:55.556Z,46.00
2019-02-16T15:51:59.883Z,46.20
2019-02-16T15:55:04.177Z,46.60
2019-02-16T15:58:08.583Z,47.10
2019-02-16T16:01:13.354Z,47.30
2019-02-16T16:04:18.166Z,47.80
2019-02-16T16:07:22.576Z,48.20
2019-02-16T16:10:31.783Z,48.50
2019-02-16T16:13:45.004Z,48.80
2019-02-16T16:17:09.440Z,49.30
2019-02-16T16:20:35.760Z,49.70
2019-02-16T16:24:17.309Z,50.80
2019-02-16T16:27:30.386Z,50.60
2019-02-16T16:30:50.147Z,51.80
2019-02-16T16:34:25.797Z,52.20
2019-02-16T16:37:55.310Z,52.40
2019-02-16T16:41:12.423Z,52.90
2019-02-16T16:44:30.545Z,53.20
2019-02-16T16:47:55.761Z,53.40
2019-02-16T16:51:17.782Z,53.50
2019-02-16T16:54:40.029Z,54.20
2019-02-16T16:58:03.137Z,54.50
2019-02-16T17:01:32.686Z,54.80
2019-02-16T17:04:46.262Z,55.00
2019-02-16T17:08:03.592Z,56.00
2019-02-16T17:11:25.805Z,55.50
2019-02-16T17:14:51.791Z,55.70
2019-02-16T17:18:21.145Z,55.90
2019-02-16T17:21:37.379Z,56.10
2019-02-16T17:25:10.678Z,56.50
2019-02-16T17:28:32.711Z,56.50
2019-02-16T17:31:43.983Z,56.80
2019-02-16T17:35:02.341Z,56.90
2019-02-16T17:38:25.680Z,57.20
2019-02-16T17:41:51.994Z,57.40
2019-02-16T17:45:21.150Z,57.70
2019-02-16T17:48:50.303Z,58.50
2019-02-16T17:52:19.484Z,58.10
2019-02-16T17:55:31.777Z,58.30
2019-02-16T17:58:55.249Z,58.50
2019-02-16T18:02:19.732Z,58.60
2019-02-16T18:05:42.098Z,58.70
2019-02-16T18:09:05.413Z,58.80
2019-02-16T18:12:17.117Z,58.80
2019-02-16T18:15:43.327Z,58.90
2019-02-16T18:18:57.332Z,58.90
2019-02-16T18:22:20.659Z,59.00
2019-02-16T18:25:37.568Z,58.90
2019-02-16T18:28:57.316Z,59.00
2019-02-16T18:32:16.739Z,59.20
2019-02-16T18:35:46.326Z,58.90
2019-02-16T18:38:57.846Z,59.10
2019-02-16T18:42:13.656Z,59.90
2019-02-16T18:45:46.346Z,59.40
2019-02-16T18:49:15.556Z,59.20
2019-02-16T18:52:37.490Z,59.30
2019-02-16T18:56:14.456Z,59.20
2019-02-16T18:59:47.105Z,59.20
2019-02-16T19:03:04.163Z,59.30
2019-02-16T19:06:45.687Z,59.40
2019-02-16T19:10:00.039Z,59.40
2019-02-16T19:13:23.428Z,59.40
2019-02-16T19:16:49.757Z,59.40
2019-02-16T19:20:31.782Z,59.40
2019-02-16T19:23:57.475Z,59.40
2019-02-16T19:27:16.669Z,59.50
2019-02-16T19:30:44.976Z,59.50
2019-02-16T19:34:07.189Z,59.50
2019-02-16T19:37:39.630Z,59.60
2019-02-16T19:40:55.409Z,59.70
2019-02-16T19:44:11.221Z,59.90
2019-02-16T19:47:34.583Z,59.80
2019-02-16T19:50:56.371Z,59.80
2019-02-16T19:54:25.338Z,59.70
2019-02-16T19:57:47.553Z,59.80
2019-02-16T20:01:10.311Z,59.80
2019-02-16T20:04:33.658Z,59.90
2019-02-16T20:07:49.483Z,60.00
2019-02-16T20:11:12.812Z,60.00
2019-02-16T20:14:26.450Z,60.00
2019-02-16T20:18:12.748Z,60.00
2019-02-16T20:22:02.620Z,59.90
2019-02-16T20:25:35.376Z,60.10
2019-02-16T20:28:47.394Z,60.10
2019-02-16T20:32:15.607Z,60.10
2019-02-16T20:35:37.476Z,60.30
2019-02-16T20:39:07.382Z,60.30
2019-02-16T20:42:34.009Z,60.20
2019-02-16T20:46:04.383Z,60.30
2019-02-16T20:49:34.062Z,60.40
2019-02-16T20:52:48.835Z,60.40
2019-02-16T20:56:12.210Z,60.40
2019-02-16T20:59:44.869Z,60.50
2019-02-16T21:03:02.299Z,60.50
2019-02-16T21:06:28.385Z,60.50
2019-02-16T21:09:51.673Z,60.40
2019-02-16T21:13:18.056Z,60.50
2019-02-16T21:16:40.262Z,60.60
2019-02-16T21:20:01.000Z,60.70
2019-02-16T21:23:39.226Z,60.70
2019-02-16T21:27:03.059Z,60.80
2019-02-16T21:30:25.988Z,60.80
2019-02-16T21:33:49.298Z,60.90
2019-02-16T21:37:21.863Z,63.40
2019-02-16T21:40:37.096Z,65.10
2019-02-16T21:44:15.848Z,64.20
2019-02-16T21:47:41.897Z,64.50
2019-02-16T21:51:07.991Z,66.90
2019-02-16T21:54:14.352Z,68.20
2019-02-16T21:57:35.427Z,67.40
2019-02-16T22:01:06.703Z,66.40
2019-02-16T22:04:17.929Z,65.60
2019-02-16T22:07:44.076Z,65.00
2019-02-16T22:11:13.475Z,64.80
2019-02-16T22:14:17.828Z,64.30
2019-02-16T22:17:22.220Z,64.10
2019-02-16T22:20:26.512Z,64.00
2019-02-16T22:23:30.900Z,63.80
2019-02-16T22:26:35.189Z,64.00
2019-02-16T22:29:39.652Z,63.70
2019-02-16T22:32:44.470Z,64.30
2019-02-16T22:35:49.004Z,63.40
2019-02-16T22:38:53.459Z,63.20
2019-02-16T22:41:57.843Z,63.10
2019-02-16T22:45:02.339Z,63.90
2019-02-16T22:48:06.712Z,62.90
2019-02-16T22:51:12.460Z,62.80
2019-02-16T22:54:17.100Z,62.80
2019-02-16T22:57:21.407Z,62.80
2019-02-16T23:01:00.200Z,62.80
2019-02-16T23:04:04.514Z,62.60
2019-02-16T23:07:08.951Z,62.60
2019-02-16T23:10:13.264Z,62.60
2019-02-16T23:13:17.644Z,62.50
2019-02-16T23:16:21.997Z,62.40
2019-02-16T23:19:26.433Z,62.30
2019-02-16T23:22:30.794Z,62.30
2019-02-16T23:25:35.204Z,62.20
2019-02-16T23:28:39.491Z,62.20
2019-02-16T23:31:43.854Z,62.20
2019-02-16T23:34:48.148Z,62.00
2019-02-16T23:37:52.529Z,62.10
2019-02-16T23:40:56.803Z,62.00
2019-02-16T23:44:01.108Z,61.90
2019-02-16T23:47:05.504Z,61.90
2019-02-16T23:50:09.827Z,61.90
2019-02-16T23:53:14.184Z,61.90
2019-02-16T23:56:18.543Z,61.80
2019-02-16T23:59:22.829Z,61.70
